EW5655 Weather Reports


Display with metric or nautical units.
time (UTC)temp
F
wind
direction
speed
MPH
gust
MPH
rain 1hr
in
rain 24hr
in
rain mn
in
humidity
%
barometer
mb
20210727084504 73 12 3.0 8.0 0.00 0.04 0.01 59 1009.3
20210727083010 73 19 1.0 6.0 0.00 0.04 0.01 61 1009.2
20210727081730 73 3 2.0 4.0 0.00 0.04 0.01 61 1009.3
20210727080219 72 358 3.0 7.0 0.00 0.04 0.01 62 1009.6
20210727074652 72 27 2.0 8.0 0.00 0.04 0.01 63 1009.6
20210727073131 71 8 3.0 8.0 0.00 0.04 0.01 66 1009.7
20210727071715 71 15 3.0 8.0 0.00 0.04 0.01 68 1010.0
20210727070131 71 359 3.0 7.0 0.01 0.04 0.01 71 1010.2
20210727064633 70 32 2.0 7.0 0.01 0.04 0.01 72 1010.2
20210727063125 70 61 2.0 9.0 0.01 0.04 0.01 75 1010.4
20210727061617 70 6 3.0 10.0 0.03 0.04 0.01 77 1010.8
20210727060045 71 13 4.0 8.0 0.03 0.03 0.00 76 1010.8
20210727054715 71 337 4.0 9.0 0.03 0.03 0.03 75 1010.8
20210727053050 70 292 2.0 8.0 0.03 0.03 0.03 78 1010.9
20210727051614 71 253 0.0 2.0 0.01 0.01 0.01 77 1011.2
20210727050117 71 169 1.0 5.0 0.00 0.00 0.00 77 1011.1
20210727044639 71 188 4.0 10.0 0.00 0.00 0.00 74 1011.2
20210727043053 71 156 7.0 12.0 0.00 0.00 0.00 73 1011.5
20210727041557 73 148 6.0 16.0 0.00 0.00 0.00 68 1011.3
20210727040029 75 143 6.0 12.0 0.00 0.00 0.00 64 1010.6
20210727034548 78 128 4.0 10.0 0.00 0.00 0.00 56 1009.9
20210727033045 80 158 6.0 12.0 0.00 0.00 0.00 51 1009.6
20210727031526 82 187 4.0 8.0 0.00 0.00 0.00 45 1008.9
20210727030057 83 240 2.0 7.0 0.00 0.00 0.00 44 1008.4
20210727024537 83 196 1.0 7.0 0.00 0.00 0.00 40 1008.2
20210727023039 83 208 3.0 9.0 0.00 0.00 0.00 40 1008.2
20210727021631 84 150 5.0 10.0 0.00 0.00 0.00 40 1008.1
20210727020022 85 156 4.0 10.0 0.00 0.00 0.00 40 1008.0
20210727014544 86 134 3.0 10.0 0.00 0.00 0.00 37 1007.9
20210727013024 86 113 7.0 12.0 0.00 0.00 0.00 35 1007.5
20210727010020 87 103 5.0 11.0 0.00 0.00 0.00 35 1006.9
20210727004529 87 108 5.0 9.0 0.00 0.00 0.00 35 1006.5
20210727003042 88 89 4.0 10.0 0.00 0.00 0.00 35 1006.5
20210727001547 89 60 5.0 12.0 0.00 0.00 0.00 34 1006.6
20210727000025 91 5 1.0 7.0 0.00 0.00 0.00 28 1006.5
20210726234523 91 40 1.0 6.0 0.00 0.00 0.00 28 1006.5
20210726233027 92 315 0.0 3.0 0.00 0.00 0.00 27 1006.8
20210726231514 92 88 0.0 5.0 0.00 0.00 0.00 27 1006.7
20210726230025 92 302 2.0 6.0 0.00 0.00 0.00 27 1006.8
20210726224520 93 152 1.0 4.0 0.00 0.00 0.00 27 1006.7
20210726223010 94 245 2.0 6.0 0.00 0.00 0.00 27 1006.7
20210726221508 94 318 1.0 6.0 0.00 0.00 0.00 27 1006.8
20210726220004 94 298 3.0 11.0 0.00 0.00 0.00 28 1007.1
20210726214502 92 305 0.0 10.0 0.00 0.00 0.00 30 1007.3
20210726213128 91 354 4.0 8.0 0.00 0.00 0.00 30 1007.4
20210726211643 92 248 2.0 10.0 0.00 0.00 0.00 30 1007.4
20210726210247 93 191 2.0 6.0 0.00 0.00 0.00 28 1007.5
20210726203357 93 173 5.0 11.0 0.00 0.00 0.00 29 1007.8
20210726201725 93 190 3.0 10.0 0.00 0.00 0.00 29 1008.0
20210726200236 93 131 6.0 11.0 0.00 0.00 0.00 29 1008.4
20210726194641 92 335 2.0 10.0 0.00 0.00 0.00 30 1008.7
20210726193141 91 341 5.0 10.0 0.00 0.00 0.00 32 1008.9
20210726191730 90 200 4.0 9.0 0.00 0.00 0.00 32 1009.0
20210726190127 89 178 3.0 9.0 0.00 0.00 0.00 34 1009.1
20210726184614 90 150 2.0 11.0 0.00 0.00 0.00 34 1009.4
20210726183101 90 310 1.0 6.0 0.00 0.00 0.00 34 1009.6
20210726181551 89 140 1.0 4.0 0.00 0.00 0.00 37 1009.6
20210726180140 88 183 2.0 7.0 0.00 0.00 0.00 38 1009.8
20210726174643 87 267 2.0 5.0 0.00 0.00 0.00 40 1009.8
20210726173103 87 311 1.0 3.0 0.00 0.00 0.00 38 1009.8
20210726171532 87 260 1.0 6.0 0.00 0.00 0.00 40 1009.8
20210726170041 86 150 1.0 7.0 0.00 0.00 0.00 42 1009.9
20210726164522 85 204 3.0 4.0 0.00 0.00 0.00 45 1009.8
20210726163016 83 196 0.0 5.0 0.00 0.00 0.00 47 1009.9
20210726161518 82 325 0.0 5.0 0.00 0.00 0.00 49 1010.0
20210726160009 81 175 1.0 4.0 0.00 0.00 0.00 52 1010.1
20210726154522 80 246 1.0 5.0 0.00 0.00 0.00 53 1010.2
20210726153004 79 250 2.0 5.0 0.00 0.00 0.00 56 1010.3
20210726151720 78 277 1.0 4.0 0.00 0.00 0.00 55 1010.1
20210726150158 77 3 0.0 2.0 0.00 0.00 0.00 58 1010.0
20210726144751 75 67 0.0 2.0 0.00 0.00 0.00 62 1009.9
20210726143205 74 14 0.0 3.0 0.00 0.00 0.00 64 1009.9
20210726141645 73 54 0.0 3.0 0.00 0.00 0.00 68 1009.7
20210726140205 72 60 0.0 3.0 0.00 0.00 0.00 70 1009.7
20210726134643 71 57 1.0 3.0 0.00 0.00 0.00 72 1009.5
20210726133127 71 69 0.0 2.0 0.00 0.00 0.00 71 1009.3
20210726131648 71 69 0.0 2.0 0.00 0.00 0.00 70 1009.4
20210726130051 71 56 0.0 3.0 0.00 0.00 0.00 70 1009.5
20210726124701 71 127 1.0 3.0 0.00 0.00 0.00 69 1009.5
20210726123056 71 211 0.0 3.0 0.00 0.00 0.00 69 1009.2
20210726121559 71 212 0.0 0.0 0.00 0.00 0.00 68 1009.1
20210726120204 71 212 0.0 2.0 0.00 0.00 0.00 67 1009.0
20210726114710 72 212 0.0 2.0 0.00 0.00 0.00 67 1009.0
20210726113109 72 212 0.0 4.0 0.00 0.00 0.00 66 1008.9
20210726111557 72 208 1.0 4.0 0.00 0.00 0.00 66 1009.1
20210726110059 73 215 2.0 3.0 0.00 0.00 0.00 65 1009.1
20210726104618 73 172 1.0 5.0 0.00 0.00 0.00 63 1009.1
20210726103042 73 164 0.0 5.0 0.00 0.00 0.00 63 1009.1
20210726101619 73 121 4.0 9.0 0.00 0.00 0.00 63 1009.0
20210726100126 73 157 1.0 4.0 0.00 0.00 0.00 67 1009.0
20210726094546 73 124 0.0 0.0 0.00 0.00 0.00 66 1009.1
20210726093109 73 124 0.0 2.0 0.00 0.00 0.00 66 1009.1
20210726091628 73 31 0.0 0.0 0.00 0.00 0.00 65 1008.9
20210726090050 73 31 0.0 0.0 0.00 0.00 0.00 63 1008.9